createdAt,value
2022-12-05T00:01:32.702Z,2.30
2022-12-05T00:04:03.857Z,2.30
2022-12-05T00:06:32.045Z,2.30
2022-12-05T00:08:59.833Z,2.30
2022-12-05T00:11:30.421Z,2.30
2022-12-05T00:14:00.355Z,2.30
2022-12-05T00:16:30.375Z,2.30
2022-12-05T00:19:01.070Z,2.30
2022-12-05T00:21:31.580Z,2.20
2022-12-05T00:24:01.030Z,2.20
2022-12-05T00:26:30.937Z,2.20
2022-12-05T00:28:58.761Z,2.20
2022-12-05T00:31:29.928Z,2.10
2022-12-05T00:34:00.881Z,2.20
2022-12-05T00:36:31.704Z,2.20
2022-12-05T00:39:06.432Z,2.20
2022-12-05T00:41:33.723Z,2.20
2022-12-05T00:44:02.330Z,2.20
2022-12-05T00:46:31.740Z,2.20
2022-12-05T00:49:00.832Z,2.20
2022-12-05T00:51:40.222Z,2.30
2022-12-05T00:54:14.320Z,2.30
2022-12-05T00:56:42.569Z,2.30
2022-12-05T00:59:16.971Z,2.30
2022-12-05T01:01:46.234Z,2.20
2022-12-05T01:04:24.251Z,2.20
2022-12-05T01:06:55.968Z,2.20
2022-12-05T01:09:24.094Z,2.10
2022-12-05T01:11:52.047Z,2.20
2022-12-05T01:14:22.557Z,2.20
2022-12-05T01:16:52.527Z,2.30
2022-12-05T01:19:26.892Z,2.30
2022-12-05T01:21:55.197Z,2.30
2022-12-05T01:24:23.706Z,2.30
2022-12-05T01:26:50.978Z,2.30
2022-12-05T01:29:20.843Z,2.30
2022-12-05T01:31:48.226Z,2.30
2022-12-05T01:34:17.949Z,2.40
2022-12-05T01:36:45.766Z,2.40
2022-12-05T01:39:13.779Z,2.40
2022-12-05T01:41:48.063Z,2.40
2022-12-05T01:44:14.999Z,2.40
2022-12-05T01:46:49.035Z,2.40
2022-12-05T01:49:28.245Z,2.40
2022-12-05T01:52:08.478Z,2.40
2022-12-05T01:54:37.711Z,2.40
2022-12-05T01:57:10.014Z,2.40
2022-12-05T01:59:42.933Z,2.30
2022-12-05T02:02:10.873Z,2.30
2022-12-05T02:04:59.217Z,2.30
2022-12-05T02:07:26.893Z,2.20
2022-12-05T02:09:54.078Z,2.20
2022-12-05T02:12:22.367Z,2.20
2022-12-05T02:15:24.960Z,2.30
2022-12-05T02:18:22.732Z,2.30
2022-12-05T02:21:37.645Z,2.40
2022-12-05T02:24:41.508Z,2.50
2022-12-05T02:27:24.231Z,2.50
2022-12-05T02:30:17.863Z,2.50
2022-12-05T02:33:09.890Z,2.60
2022-12-05T02:36:18.255Z,2.60
2022-12-05T02:39:09.698Z,2.60
2022-12-05T02:42:18.306Z,2.60
2022-12-05T02:44:54.814Z,2.60
2022-12-05T02:47:26.809Z,2.60
2022-12-05T02:49:55.301Z,2.60
2022-12-05T02:52:25.103Z,2.60
2022-12-05T02:54:55.363Z,2.60
2022-12-05T02:57:24.792Z,2.60
2022-12-05T02:59:52.327Z,2.60
2022-12-05T03:02:33.167Z,2.60
2022-12-05T03:05:33.813Z,2.70
2022-12-05T03:08:05.144Z,2.70
2022-12-05T03:10:35.194Z,2.60
2022-12-05T03:13:10.754Z,2.70
2022-12-05T03:15:48.701Z,2.70
2022-12-05T03:18:31.560Z,2.60
2022-12-05T03:21:14.346Z,2.60
2022-12-05T03:23:53.498Z,2.60
2022-12-05T03:26:48.431Z,2.60
2022-12-05T03:29:32.115Z,2.60
2022-12-05T03:32:16.678Z,2.60
2022-12-05T03:35:11.609Z,2.70
2022-12-05T03:38:09.409Z,2.60
2022-12-05T03:40:54.061Z,2.60
2022-12-05T03:43:53.325Z,2.60
2022-12-05T03:46:45.356Z,2.60
2022-12-05T03:49:45.357Z,2.60
2022-12-05T03:52:57.155Z,2.60
2022-12-05T03:55:31.730Z,2.50
2022-12-05T03:58:08.985Z,2.60
2022-12-05T04:00:43.068Z,2.50
2022-12-05T04:03:19.467Z,2.50
2022-12-05T04:05:56.292Z,2.50
2022-12-05T04:08:30.011Z,2.50
2022-12-05T04:11:05.542Z,2.60
2022-12-05T04:13:47.803Z,2.60
2022-12-05T04:16:51.024Z,2.60
2022-12-05T04:19:59.278Z,2.60
2022-12-05T04:22:27.566Z,2.60
2022-12-05T04:25:16.461Z,2.60
2022-12-05T04:27:59.633Z,2.60
2022-12-05T04:30:44.872Z,2.60
2022-12-05T04:33:43.542Z,2.60
2022-12-05T04:36:31.489Z,2.60
2022-12-05T04:39:03.993Z,2.60
2022-12-05T04:41:41.004Z,2.60
2022-12-05T04:44:12.609Z,2.60
2022-12-05T04:46:44.149Z,2.60
2022-12-05T04:49:20.477Z,2.60
2022-12-05T04:51:53.238Z,2.60
2022-12-05T04:54:36.595Z,2.60
2022-12-05T04:57:31.794Z,2.60
2022-12-05T04:59:58.960Z,2.60
2022-12-05T05:02:35.576Z,2.70
2022-12-05T05:05:12.489Z,2.70
2022-12-05T05:07:53.545Z,2.70
2022-12-05T05:10:34.224Z,2.80
2022-12-05T05:13:01.297Z,2.80
2022-12-05T05:15:28.500Z,2.80
2022-12-05T05:17:55.599Z,2.80
2022-12-05T05:20:25.289Z,2.80
2022-12-05T05:22:54.425Z,2.80
2022-12-05T05:25:22.390Z,2.70
2022-12-05T05:27:52.322Z,2.80
2022-12-05T05:30:21.584Z,2.80
2022-12-05T05:32:49.490Z,2.80
2022-12-05T05:35:17.051Z,2.80
2022-12-05T05:37:44.263Z,2.80
2022-12-05T05:40:13.253Z,2.70
2022-12-05T05:42:48.392Z,2.70
2022-12-05T05:45:16.673Z,2.70
2022-12-05T05:47:44.388Z,2.70
2022-12-05T05:50:16.267Z,2.70
2022-12-05T05:52:46.710Z,2.70
2022-12-05T05:55:13.823Z,2.70
2022-12-05T05:57:40.872Z,2.70
2022-12-05T06:00:09.130Z,2.60
2022-12-05T06:02:37.558Z,2.60
2022-12-05T06:05:05.766Z,2.70
2022-12-05T06:07:33.062Z,2.70
2022-12-05T06:10:00.607Z,2.70
2022-12-05T06:12:28.089Z,2.80
2022-12-05T06:14:55.126Z,2.70
2022-12-05T06:17:22.281Z,2.70
2022-12-05T06:19:49.296Z,2.70
2022-12-05T06:22:16.326Z,2.70
2022-12-05T06:24:43.534Z,2.70
2022-12-05T06:27:10.577Z,2.70
2022-12-05T06:29:37.657Z,2.80
2022-12-05T06:32:05.227Z,2.80
2022-12-05T06:34:32.820Z,2.80
2022-12-05T06:37:00.234Z,2.80
2022-12-05T06:39:27.666Z,2.70
2022-12-05T06:41:54.721Z,2.70
2022-12-05T06:44:22.083Z,2.60
2022-12-05T06:46:49.489Z,2.60
2022-12-05T06:49:16.541Z,2.60
2022-12-05T06:51:43.684Z,2.60
2022-12-05T06:54:13.053Z,2.60
2022-12-05T06:56:40.300Z,2.70
2022-12-05T06:59:07.358Z,2.70
2022-12-05T07:01:41.679Z,2.70
2022-12-05T07:04:26.217Z,2.70
2022-12-05T07:06:55.397Z,2.70
2022-12-05T07:10:01.378Z,2.80
2022-12-05T07:12:28.681Z,2.80
2022-12-05T07:14:55.677Z,2.80
2022-12-05T07:17:22.874Z,2.90
2022-12-05T07:19:51.234Z,2.90
2022-12-05T07:22:21.208Z,2.80
2022-12-05T07:24:48.878Z,2.90
2022-12-05T07:27:17.649Z,2.90
2022-12-05T07:29:46.571Z,2.90
2022-12-05T07:32:13.677Z,2.80
2022-12-05T07:34:42.360Z,2.70
2022-12-05T07:37:09.394Z,2.70
2022-12-05T07:39:36.445Z,2.70
2022-12-05T07:42:03.659Z,2.70
2022-12-05T07:44:30.925Z,2.70
2022-12-05T07:46:59.049Z,2.70
2022-12-05T07:49:26.246Z,2.70
2022-12-05T07:51:53.257Z,2.70
2022-12-05T07:54:20.306Z,2.70
2022-12-05T07:56:48.094Z,2.70
2022-12-05T07:59:15.414Z,2.80
2022-12-05T08:01:42.496Z,2.80
2022-12-05T08:04:14.887Z,2.80
2022-12-05T08:06:42.488Z,2.90
2022-12-05T08:09:09.651Z,2.90
2022-12-05T08:11:36.841Z,2.90
2022-12-05T08:14:06.302Z,3.00
2022-12-05T08:16:33.789Z,3.00
2022-12-05T08:19:13.538Z,2.90
2022-12-05T08:21:40.820Z,3.00
2022-12-05T08:24:08.430Z,3.00
2022-12-05T08:26:37.218Z,3.00
2022-12-05T08:29:08.469Z,3.00
2022-12-05T08:31:47.324Z,3.00
2022-12-05T08:34:15.906Z,3.00
2022-12-05T08:36:43.053Z,3.10
2022-12-05T08:39:16.047Z,3.20
2022-12-05T08:41:47.927Z,3.20
2022-12-05T08:44:17.203Z,3.20
2022-12-05T08:46:48.050Z,3.20
2022-12-05T08:49:16.123Z,3.30
2022-12-05T08:51:44.210Z,3.30
2022-12-05T08:54:11.826Z,3.50
2022-12-05T08:56:38.977Z,3.50
2022-12-05T08:59:06.649Z,3.50
2022-12-05T09:01:38.355Z,3.50
2022-12-05T09:04:06.449Z,3.50
2022-12-05T09:06:35.751Z,3.50
2022-12-05T09:09:07.331Z,3.40
2022-12-05T09:11:40.844Z,3.50
2022-12-05T09:14:08.153Z,3.40
2022-12-05T09:16:38.740Z,3.30
2022-12-05T09:19:12.927Z,3.20
2022-12-05T09:21:40.650Z,3.20
2022-12-05T09:24:07.785Z,3.10
2022-12-05T09:26:34.920Z,3.20
2022-12-05T09:29:03.472Z,3.20
2022-12-05T09:31:32.283Z,3.20
2022-12-05T09:33:59.529Z,3.20
2022-12-05T09:36:30.012Z,3.20
2022-12-05T09:39:02.098Z,3.20
2022-12-05T09:42:18.452Z,3.30
2022-12-05T09:45:15.243Z,3.40
2022-12-05T09:47:54.233Z,3.40
2022-12-05T09:50:24.349Z,3.50
2022-12-05T09:52:59.313Z,3.50
2022-12-05T09:55:38.514Z,3.60
2022-12-05T09:58:17.373Z,3.70
2022-12-05T10:00:44.583Z,3.70
2022-12-05T10:03:41.634Z,3.80
2022-12-05T10:06:16.148Z,3.80
2022-12-05T10:09:08.863Z,3.90
2022-12-05T10:11:58.933Z,3.90
2022-12-05T10:14:45.423Z,3.90
2022-12-05T10:17:32.217Z,4.00
2022-12-05T10:20:06.771Z,3.90
2022-12-05T10:22:48.169Z,3.80
2022-12-05T10:25:20.783Z,3.80
2022-12-05T10:28:04.448Z,3.80
2022-12-05T10:30:36.197Z,3.80
2022-12-05T10:33:13.905Z,3.80
2022-12-05T10:35:45.047Z,3.80
2022-12-05T10:38:32.717Z,3.80
2022-12-05T10:41:07.114Z,3.80
2022-12-05T10:43:38.085Z,3.90
2022-12-05T10:46:09.765Z,3.90
2022-12-05T10:48:41.914Z,3.80
2022-12-05T10:51:17.845Z,3.80
2022-12-05T10:53:51.280Z,3.80
2022-12-05T10:56:36.799Z,3.80
2022-12-05T10:59:05.462Z,3.80
2022-12-05T11:01:33.741Z,3.90
2022-12-05T11:04:25.545Z,3.90
2022-12-05T11:07:06.006Z,4.00
2022-12-05T11:09:37.377Z,4.10
2022-12-05T11:12:20.510Z,4.20
2022-12-05T11:15:19.581Z,4.30
2022-12-05T11:17:47.053Z,4.30
2022-12-05T11:20:19.686Z,4.30
2022-12-05T11:22:59.252Z,4.20
2022-12-05T11:25:36.400Z,4.20
2022-12-05T11:28:35.180Z,4.10
2022-12-05T11:31:17.257Z,4.10
2022-12-05T11:34:02.321Z,4.00
2022-12-05T11:36:45.794Z,4.00
2022-12-05T11:39:14.300Z,4.00
2022-12-05T11:42:02.760Z,4.00
2022-12-05T11:45:09.812Z,4.00
2022-12-05T11:47:54.899Z,4.10
2022-12-05T11:50:45.809Z,4.10
2022-12-05T11:53:26.281Z,4.00
2022-12-05T11:56:15.668Z,4.00
2022-12-05T11:59:10.152Z,4.10
2022-12-05T12:02:18.372Z,4.00
2022-12-05T12:05:21.439Z,4.00
2022-12-05T12:08:09.419Z,4.10
2022-12-05T12:10:55.101Z,4.10
2022-12-05T12:13:42.014Z,4.00
2022-12-05T12:16:43.107Z,4.00
2022-12-05T12:19:35.637Z,3.90
2022-12-05T12:22:11.678Z,3.90
2022-12-05T12:25:17.894Z,3.90
2022-12-05T12:28:22.531Z,3.90
2022-12-05T12:30:52.312Z,3.90
2022-12-05T12:33:35.176Z,3.90
2022-12-05T12:36:26.879Z,3.90
2022-12-05T12:39:26.481Z,3.70
2022-12-05T12:42:18.285Z,4.00
2022-12-05T12:45:23.613Z,4.00
2022-12-05T12:48:13.705Z,4.10
2022-12-05T12:50:51.638Z,4.10
2022-12-05T12:54:07.754Z,4.10
2022-12-05T12:56:51.479Z,4.10
2022-12-05T12:59:41.024Z,4.10
2022-12-05T13:02:46.801Z,4.10
2022-12-05T13:05:35.642Z,4.10
2022-12-05T13:08:15.653Z,4.20
2022-12-05T13:10:48.343Z,4.10
2022-12-05T13:13:24.266Z,4.10
2022-12-05T13:15:55.116Z,4.10
2022-12-05T13:18:25.732Z,4.20
2022-12-05T13:20:57.385Z,4.30
2022-12-05T13:23:29.278Z,4.50
2022-12-05T13:25:59.282Z,4.50
2022-12-05T13:28:30.186Z,4.60
2022-12-05T13:31:01.792Z,4.70
2022-12-05T13:33:34.876Z,4.80
2022-12-05T13:36:28.388Z,4.80
2022-12-05T13:39:40.880Z,4.80
2022-12-05T13:42:23.943Z,4.90
2022-12-05T13:45:07.710Z,4.90
2022-12-05T13:48:01.636Z,4.90
2022-12-05T13:50:45.939Z,4.80
2022-12-05T13:53:39.746Z,4.80
2022-12-05T13:56:12.902Z,4.70
2022-12-05T13:58:46.945Z,4.70
2022-12-05T14:01:26.610Z,4.70
2022-12-05T14:04:41.223Z,4.80
2022-12-05T14:07:10.878Z,4.70
2022-12-05T14:09:55.227Z,4.70
2022-12-05T14:12:22.286Z,4.60
2022-12-05T14:15:01.751Z,4.70
2022-12-05T14:17:45.397Z,4.80
2022-12-05T14:20:51.192Z,4.80
2022-12-05T14:23:52.482Z,4.80
2022-12-05T14:26:31.569Z,4.80
2022-12-05T14:29:20.357Z,4.80
2022-12-05T14:32:13.894Z,4.80
2022-12-05T14:35:14.024Z,4.80
2022-12-05T14:38:05.530Z,4.70
2022-12-05T14:40:39.862Z,4.60
2022-12-05T14:43:30.353Z,4.60
2022-12-05T14:46:08.417Z,4.60
2022-12-05T14:48:47.273Z,4.70
2022-12-05T14:51:33.526Z,4.70
2022-12-05T14:54:19.553Z,4.60
2022-12-05T14:56:52.696Z,4.60
2022-12-05T15:00:06.962Z,4.60
2022-12-05T15:02:42.474Z,4.60
2022-12-05T15:05:28.465Z,4.50
2022-12-05T15:07:57.485Z,4.50
2022-12-05T15:10:32.574Z,4.50
2022-12-05T15:13:13.705Z,4.50
2022-12-05T15:15:41.716Z,4.40
2022-12-05T15:18:39.794Z,4.40
2022-12-05T15:21:50.567Z,4.40
2022-12-05T15:24:20.066Z,4.40
2022-12-05T15:26:51.617Z,4.30
2022-12-05T15:29:24.371Z,4.30
2022-12-05T15:32:20.703Z,4.30
2022-12-05T15:35:09.159Z,4.30
2022-12-05T15:37:54.269Z,4.20
2022-12-05T15:40:23.648Z,4.20
2022-12-05T15:42:56.293Z,4.20
2022-12-05T15:45:29.489Z,4.20
2022-12-05T15:48:05.553Z,4.20
2022-12-05T15:50:47.292Z,4.10
2022-12-05T15:53:31.530Z,4.20
2022-12-05T15:56:07.557Z,4.10
2022-12-05T15:58:52.578Z,4.10
2022-12-05T16:01:24.309Z,4.10
2022-12-05T16:04:00.269Z,4.00
2022-12-05T16:06:51.648Z,4.00
2022-12-05T16:09:22.738Z,4.00
2022-12-05T16:11:57.734Z,3.90
2022-12-05T16:17:21.770Z,3.90
2022-12-05T16:19:49.328Z,3.90
2022-12-05T16:22:26.573Z,3.90
2022-12-05T16:25:01.765Z,3.90
2022-12-05T16:27:39.369Z,3.80
2022-12-05T16:30:20.773Z,3.80
2022-12-05T16:33:02.531Z,3.70
2022-12-05T16:35:34.610Z,3.70
2022-12-05T16:38:26.902Z,3.60
2022-12-05T16:40:57.030Z,3.60
2022-12-05T16:43:34.649Z,3.50
2022-12-05T16:46:14.050Z,3.50
2022-12-05T16:49:18.917Z,3.40
2022-12-05T16:52:15.162Z,3.40
2022-12-05T16:54:46.315Z,3.40
2022-12-05T16:57:15.517Z,3.40
2022-12-05T16:59:43.761Z,3.40
2022-12-05T17:02:17.583Z,3.50
2022-12-05T17:04:46.963Z,3.50
2022-12-05T17:07:14.049Z,3.50
2022-12-05T17:09:41.553Z,3.50
2022-12-05T17:12:18.946Z,3.50
2022-12-05T17:14:47.306Z,3.50
2022-12-05T17:17:19.090Z,3.50
2022-12-05T17:19:46.282Z,3.50
2022-12-05T17:22:15.860Z,3.60
2022-12-05T17:24:44.522Z,3.60
2022-12-05T17:27:12.957Z,3.60
2022-12-05T17:29:40.019Z,3.60
2022-12-05T17:32:07.025Z,3.60
2022-12-05T17:34:34.050Z,3.70
2022-12-05T17:37:01.203Z,3.70
2022-12-05T17:39:29.022Z,3.70
2022-12-05T17:41:56.433Z,3.70
2022-12-05T17:44:23.897Z,3.70
2022-12-05T17:46:51.020Z,3.60
2022-12-05T17:49:18.477Z,3.60
2022-12-05T17:52:19.974Z,3.60
2022-12-05T17:54:33.435Z,3.60
2022-12-05T17:57:00.491Z,3.60
2022-12-05T17:59:27.504Z,3.50
2022-12-05T18:01:54.547Z,3.50
2022-12-05T18:04:23.455Z,3.50
2022-12-05T18:06:51.398Z,3.50
2022-12-05T18:09:18.584Z,3.50
2022-12-05T18:11:45.653Z,3.60
2022-12-05T18:14:12.713Z,3.60
2022-12-05T18:16:39.771Z,3.70
2022-12-05T18:19:08.350Z,3.70
2022-12-05T18:21:35.730Z,3.60
2022-12-05T18:24:02.824Z,3.60
2022-12-05T18:26:29.989Z,3.70
2022-12-05T18:28:58.940Z,3.60
2022-12-05T18:31:26.189Z,3.60
2022-12-05T18:33:53.444Z,3.60
2022-12-05T18:36:21.695Z,3.50
2022-12-05T18:38:54.938Z,3.50
2022-12-05T18:41:23.800Z,3.50
2022-12-05T18:43:51.403Z,3.40
2022-12-05T18:46:19.025Z,3.40
2022-12-05T18:48:48.060Z,3.40
2022-12-05T18:51:19.729Z,3.30
2022-12-05T18:53:53.217Z,3.40
2022-12-05T18:56:30.298Z,3.30
2022-12-05T18:59:06.805Z,3.30
2022-12-05T19:01:37.504Z,3.30
2022-12-05T19:04:06.591Z,3.30
2022-12-05T19:06:36.798Z,3.30
2022-12-05T19:09:11.572Z,3.40
2022-12-05T19:11:47.615Z,3.40
2022-12-05T19:14:17.141Z,3.40
2022-12-05T19:16:44.487Z,3.40
2022-12-05T19:19:14.470Z,3.40
2022-12-05T19:21:42.714Z,3.40
2022-12-05T19:24:14.536Z,3.40
2022-12-05T19:26:42.154Z,3.40
2022-12-05T19:29:12.642Z,3.40
2022-12-05T19:31:40.058Z,3.40
2022-12-05T19:34:09.256Z,3.40
2022-12-05T19:36:43.341Z,3.50
2022-12-05T19:39:14.669Z,3.50
2022-12-05T19:41:42.337Z,3.50
2022-12-05T19:44:09.816Z,3.40
2022-12-05T19:46:37.736Z,3.40
2022-12-05T19:49:09.411Z,3.50
2022-12-05T19:51:37.654Z,3.40
2022-12-05T19:54:06.582Z,3.40
2022-12-05T19:56:35.483Z,3.30
2022-12-05T19:59:03.191Z,3.30
2022-12-05T20:01:30.341Z,3.30
2022-12-05T20:04:01.181Z,3.30
2022-12-05T20:06:43.618Z,3.30
2022-12-05T20:09:12.438Z,3.30
2022-12-05T20:11:48.332Z,3.30
2022-12-05T20:14:25.384Z,3.40
2022-12-05T20:16:53.194Z,3.40
2022-12-05T20:19:20.546Z,3.50
2022-12-05T20:21:47.607Z,3.50
2022-12-05T20:24:14.895Z,3.50
2022-12-05T20:26:45.906Z,3.50
2022-12-05T20:29:13.526Z,3.50
2022-12-05T20:31:42.831Z,3.50
2022-12-05T20:34:15.215Z,3.50
2022-12-05T20:36:42.925Z,3.60
2022-12-05T20:39:17.264Z,3.50
2022-12-05T20:41:45.130Z,3.50
2022-12-05T20:44:15.832Z,3.50
2022-12-05T20:46:43.241Z,3.40
2022-12-05T20:49:14.955Z,3.40
2022-12-05T20:51:44.730Z,3.40
2022-12-05T20:54:18.311Z,3.40
2022-12-05T20:56:45.617Z,3.40
2022-12-05T20:59:13.470Z,3.50
2022-12-05T21:01:40.911Z,3.50
2022-12-05T21:04:09.323Z,3.50
2022-12-05T21:06:40.652Z,3.50
2022-12-05T21:09:19.340Z,3.50
2022-12-05T21:11:46.365Z,3.50
2022-12-05T21:14:13.476Z,3.60
2022-12-05T21:16:40.876Z,3.70
2022-12-05T21:19:08.922Z,3.70
2022-12-05T21:21:36.166Z,3.70
2022-12-05T21:24:05.060Z,3.70
2022-12-05T21:26:35.071Z,3.70
2022-12-05T21:29:04.070Z,3.70
2022-12-05T21:31:37.451Z,3.70
2022-12-05T21:34:11.826Z,3.80
2022-12-05T21:36:38.865Z,3.80
2022-12-05T21:39:07.026Z,3.80
2022-12-05T21:41:34.326Z,3.80
2022-12-05T21:44:02.027Z,3.70
2022-12-05T21:46:29.101Z,3.70
2022-12-05T21:48:56.205Z,3.80
2022-12-05T21:51:23.998Z,3.70
2022-12-05T21:53:51.875Z,3.80
2022-12-05T21:56:25.660Z,3.70
2022-12-05T21:58:53.261Z,3.70
2022-12-05T22:01:23.949Z,3.70
2022-12-05T22:03:59.297Z,3.70
2022-12-05T22:06:26.934Z,3.60
2022-12-05T22:08:55.343Z,3.60
2022-12-05T22:11:23.873Z,3.60
2022-12-05T22:13:51.862Z,3.60
2022-12-05T22:16:19.772Z,3.60
2022-12-05T22:18:47.667Z,3.50
2022-12-05T22:21:20.830Z,3.50
2022-12-05T22:23:49.238Z,3.50
2022-12-05T22:26:23.127Z,3.40
2022-12-05T22:28:51.813Z,3.40
2022-12-05T22:31:19.847Z,3.40
2022-12-05T22:33:47.914Z,3.30
2022-12-05T22:36:17.744Z,3.30
2022-12-05T22:38:47.374Z,3.30
2022-12-05T22:41:21.665Z,3.30
2022-12-05T22:43:53.273Z,3.30
2022-12-05T22:46:21.632Z,3.30
2022-12-05T22:48:50.715Z,3.30
2022-12-05T22:51:19.976Z,3.30
2022-12-05T22:53:47.410Z,3.30
2022-12-05T22:56:17.676Z,3.30
2022-12-05T22:58:46.514Z,3.40
2022-12-05T23:01:19.172Z,3.40
2022-12-05T23:03:49.028Z,3.50
2022-12-05T23:06:18.114Z,3.50
2022-12-05T23:08:48.228Z,3.50
2022-12-05T23:11:16.935Z,3.60
2022-12-05T23:13:44.453Z,3.60
2022-12-05T23:16:17.076Z,3.60
2022-12-05T23:18:47.033Z,3.60
2022-12-05T23:21:29.705Z,3.60
2022-12-05T23:24:00.907Z,3.60
2022-12-05T23:26:32.515Z,3.60
2022-12-05T23:28:59.866Z,3.60
2022-12-05T23:31:27.031Z,3.60
2022-12-05T23:33:57.233Z,3.50
2022-12-05T23:36:28.444Z,3.50
2022-12-05T23:38:55.531Z,3.50
2022-12-05T23:41:24.804Z,3.50
2022-12-05T23:43:52.538Z,3.50
2022-12-05T23:46:25.318Z,3.60
2022-12-05T23:48:52.939Z,3.60
2022-12-05T23:51:27.141Z,3.60
2022-12-05T23:53:58.445Z,3.50
2022-12-05T23:56:32.253Z,3.50
2022-12-05T23:58:59.816Z,3.50
